createdAt,value
2018-06-23T00:00:32.154Z,0
2018-06-23T00:01:34.677Z,0
2018-06-23T00:02:36.707Z,0
2018-06-23T00:03:39.079Z,0
2018-06-23T00:04:41.127Z,0
2018-06-23T00:05:43.182Z,0
2018-06-23T00:06:45.255Z,0
2018-06-23T00:07:47.591Z,0
2018-06-23T00:08:49.642Z,0
2018-06-23T00:09:51.690Z,0
2018-06-23T00:10:53.738Z,0
2018-06-23T00:11:55.846Z,0
2018-06-23T00:12:57.888Z,0
2018-06-23T00:14:00.241Z,0
2018-06-23T00:15:02.663Z,0
2018-06-23T00:16:04.700Z,0
2018-06-23T00:17:07.142Z,0
2018-06-23T00:18:09.176Z,0
2018-06-23T00:19:11.203Z,0
2018-06-23T00:20:13.245Z,0
2018-06-23T00:21:15.947Z,0
2018-06-23T00:22:18.046Z,0
2018-06-23T00:23:20.082Z,0
2018-06-23T00:24:22.409Z,0
2018-06-23T00:25:25.547Z,0
2018-06-23T00:26:28.101Z,0
2018-06-23T00:27:31.616Z,0
2018-06-23T00:28:34.105Z,0
2018-06-23T00:29:37.514Z,0
2018-06-23T00:30:39.782Z,0
2018-06-23T00:31:42.588Z,0
2018-06-23T00:32:45.200Z,0
2018-06-23T00:33:47.980Z,0
2018-06-23T00:34:50.357Z,0
2018-06-23T00:35:53.636Z,0
2018-06-23T00:36:56.290Z,0
2018-06-23T00:37:58.363Z,0
2018-06-23T00:39:00.873Z,0
2018-06-23T00:40:03.390Z,0
2018-06-23T00:41:07.194Z,0
2018-06-23T00:42:11.077Z,0
2018-06-23T00:43:14.450Z,0
2018-06-23T00:44:16.893Z,0
2018-06-23T00:45:20.708Z,0
2018-06-23T00:46:23.028Z,0
2018-06-23T00:47:25.250Z,0
2018-06-23T00:48:27.358Z,0
2018-06-23T00:49:31.340Z,0
2018-06-23T00:50:34.319Z,0
2018-06-23T00:51:36.600Z,0
2018-06-23T00:52:39.638Z,0
2018-06-23T00:53:41.677Z,0
2018-06-23T00:54:43.709Z,0
2018-06-23T00:55:45.745Z,0
2018-06-23T00:56:47.799Z,0
2018-06-23T00:57:49.838Z,0
2018-06-23T00:58:51.876Z,0
2018-06-23T00:59:54.040Z,0
2018-06-23T01:00:56.099Z,0
2018-06-23T01:01:58.440Z,0
2018-06-23T01:03:00.528Z,0
2018-06-23T01:04:02.601Z,0
2018-06-23T01:05:04.639Z,0
2018-06-23T01:06:06.692Z,0
2018-06-23T01:07:08.844Z,0
2018-06-23T01:08:10.908Z,0
2018-06-23T01:09:12.950Z,0
2018-06-23T01:10:15.665Z,0
2018-06-23T01:11:19.280Z,0
2018-06-23T01:12:23.214Z,0
2018-06-23T01:13:26.451Z,0
2018-06-23T01:14:29.973Z,0
2018-06-23T01:15:32.223Z,0
2018-06-23T01:16:36.071Z,0
2018-06-23T01:17:39.955Z,0
2018-06-23T01:18:42.719Z,0
2018-06-23T01:19:45.346Z,0
2018-06-23T01:20:49.079Z,0
2018-06-23T01:21:51.503Z,0
2018-06-23T01:22:54.597Z,0
2018-06-23T01:23:56.990Z,0
2018-06-23T01:24:59.744Z,0
2018-06-23T01:26:01.869Z,0
2018-06-23T01:27:04.323Z,0
2018-06-23T01:28:07.424Z,0
2018-06-23T01:29:11.019Z,0
2018-06-23T01:30:13.389Z,0
2018-06-23T01:31:16.014Z,0
2018-06-23T01:32:18.710Z,0
2018-06-23T01:33:22.396Z,0
2018-06-23T01:34:26.258Z,0
2018-06-23T01:35:28.807Z,0
2018-06-23T01:36:32.032Z,0
2018-06-23T01:37:35.029Z,0
2018-06-23T01:38:38.217Z,0
2018-06-23T01:39:40.668Z,0
2018-06-23T01:40:43.818Z,0
2018-06-23T01:41:47.111Z,0
2018-06-23T01:42:49.266Z,0
2018-06-23T01:43:51.588Z,0
2018-06-23T01:44:54.668Z,0
2018-06-23T01:45:57.265Z,0
2018-06-23T01:47:00.193Z,0
2018-06-23T01:48:03.194Z,0
2018-06-23T01:49:06.006Z,0
2018-06-23T01:50:08.669Z,0
2018-06-23T01:51:11.689Z,0
2018-06-23T01:52:14.289Z,0
2018-06-23T01:53:16.622Z,0
2018-06-23T01:54:19.586Z,0
2018-06-23T01:55:22.684Z,0
2018-06-23T01:56:25.374Z,0
2018-06-23T01:57:28.601Z,0
2018-06-23T01:58:31.565Z,0
2018-06-23T01:59:34.059Z,0
2018-06-23T02:00:36.240Z,0
2018-06-23T02:01:39.177Z,0
2018-06-23T02:02:41.629Z,0
2018-06-23T02:03:44.483Z,0
2018-06-23T02:04:49.017Z,0
2018-06-23T02:05:51.143Z,0
2018-06-23T02:06:53.366Z,0
2018-06-23T02:07:55.843Z,0
2018-06-23T02:08:58.430Z,0
2018-06-23T02:10:00.729Z,0
2018-06-23T02:11:04.449Z,0
2018-06-23T02:12:06.486Z,0
2018-06-23T02:13:09.492Z,0
2018-06-23T02:14:11.724Z,0
2018-06-23T02:15:15.451Z,0
2018-06-23T02:16:18.513Z,0
2018-06-23T02:17:21.445Z,0
2018-06-23T02:18:23.944Z,0
2018-06-23T02:19:27.054Z,0
2018-06-23T02:20:29.992Z,0
2018-06-23T02:21:32.197Z,0
2018-06-23T02:22:35.054Z,0
2018-06-23T02:23:38.669Z,0
2018-06-23T02:24:41.136Z,0
2018-06-23T02:25:44.070Z,0
2018-06-23T02:26:47.031Z,0
2018-06-23T02:27:50.390Z,0
2018-06-23T02:28:53.510Z,0
2018-06-23T02:29:57.305Z,0
2018-06-23T02:31:00.612Z,0
2018-06-23T02:32:03.587Z,0
2018-06-23T02:33:06.558Z,0
2018-06-23T02:34:09.711Z,0
2018-06-23T02:35:13.250Z,0
2018-06-23T02:36:15.731Z,0
2018-06-23T02:37:18.234Z,0
2018-06-23T02:38:21.142Z,0
2018-06-23T02:39:23.732Z,0
2018-06-23T02:40:26.424Z,0
2018-06-23T02:41:29.761Z,1
2018-06-23T02:42:32.494Z,1
2018-06-23T02:43:36.292Z,1
2018-06-23T02:44:39.075Z,1
2018-06-23T02:45:41.566Z,1
2018-06-23T02:46:44.222Z,1
2018-06-23T02:47:47.501Z,1
2018-06-23T02:48:51.013Z,1
2018-06-23T02:49:54.228Z,1
2018-06-23T02:50:56.931Z,1
2018-06-23T02:51:59.933Z,1
2018-06-23T02:53:02.414Z,1
2018-06-23T02:54:06.583Z,1
2018-06-23T02:55:09.130Z,1
2018-06-23T02:56:11.802Z,2
2018-06-23T02:57:15.116Z,2
2018-06-23T02:58:18.790Z,2
2018-06-23T02:59:21.303Z,2
2018-06-23T03:00:23.978Z,2
2018-06-23T03:01:26.601Z,2
2018-06-23T03:02:29.579Z,2
2018-06-23T03:03:32.121Z,2
2018-06-23T03:04:34.345Z,3
2018-06-23T03:05:37.213Z,3
2018-06-23T03:06:39.293Z,3
2018-06-23T03:07:41.429Z,3
2018-06-23T03:08:44.850Z,4
2018-06-23T03:09:48.026Z,4
2018-06-23T03:10:50.709Z,4
2018-06-23T03:11:53.784Z,4
2018-06-23T03:12:57.456Z,4
2018-06-23T03:14:00.288Z,4
2018-06-23T03:15:02.927Z,4
2018-06-23T03:16:05.651Z,4
2018-06-23T03:17:08.092Z,5
2018-06-23T03:18:11.605Z,5
2018-06-23T03:19:14.264Z,5
2018-06-23T03:20:16.805Z,6
2018-06-23T03:21:19.666Z,6
2018-06-23T03:22:22.803Z,6
2018-06-23T03:23:25.323Z,7
2018-06-23T03:24:28.428Z,6
2018-06-23T03:25:30.826Z,6
2018-06-23T03:26:33.165Z,6
2018-06-23T03:27:35.206Z,7
2018-06-23T03:28:37.265Z,7
2018-06-23T03:29:39.595Z,7
2018-06-23T03:30:42.339Z,7
2018-06-23T03:31:44.403Z,7
2018-06-23T03:32:46.441Z,7
2018-06-23T03:33:48.464Z,7
2018-06-23T03:34:50.534Z,6
2018-06-23T03:35:52.907Z,6
2018-06-23T03:36:55.230Z,6
2018-06-23T03:37:58.140Z,7
2018-06-23T03:39:00.185Z,7
2018-06-23T03:40:02.439Z,6
2018-06-23T03:41:04.812Z,6
2018-06-23T03:42:07.517Z,5
2018-06-23T03:43:09.902Z,6
2018-06-23T03:44:12.383Z,6
2018-06-23T03:45:14.468Z,8
2018-06-23T03:46:16.808Z,10
2018-06-23T03:47:18.842Z,10
2018-06-23T03:48:20.880Z,9
2018-06-23T03:49:22.916Z,8
2018-06-23T03:50:24.992Z,8
2018-06-23T03:51:27.720Z,8
2018-06-23T03:52:29.782Z,7
2018-06-23T03:53:32.119Z,6
2018-06-23T03:54:34.157Z,6
2018-06-23T03:55:36.184Z,7
2018-06-23T03:56:38.330Z,6
2018-06-23T03:57:40.458Z,5
2018-06-23T03:58:42.807Z,5
2018-06-23T03:59:45.126Z,7
2018-06-23T04:00:47.170Z,7
2018-06-23T04:01:49.630Z,7
2018-06-23T04:02:51.957Z,7
2018-06-23T04:03:54.009Z,6
2018-06-23T04:04:56.385Z,6
2018-06-23T04:05:58.415Z,8
2018-06-23T04:07:00.445Z,9
2018-06-23T04:08:02.509Z,10
2018-06-23T04:09:04.582Z,10
2018-06-23T04:10:06.675Z,9
2018-06-23T04:11:09.064Z,8
2018-06-23T04:12:11.415Z,11
2018-06-23T04:13:13.465Z,13
2018-06-23T04:14:15.526Z,12
2018-06-23T04:15:18.010Z,12
2018-06-23T04:16:20.084Z,12
2018-06-23T04:17:22.444Z,8
2018-06-23T04:18:24.531Z,9
2018-06-23T04:19:26.967Z,10
2018-06-23T04:20:29.444Z,12
2018-06-23T04:21:31.508Z,13
2018-06-23T04:22:33.543Z,13
2018-06-23T04:23:35.971Z,11
2018-06-23T04:24:38.024Z,15
2018-06-23T04:25:40.072Z,15
2018-06-23T04:26:42.490Z,13
2018-06-23T04:27:44.570Z,13
2018-06-23T04:28:46.605Z,13
2018-06-23T04:29:48.644Z,13
2018-06-23T04:30:50.698Z,12
2018-06-23T04:31:52.742Z,11
2018-06-23T04:32:54.779Z,11
2018-06-23T04:33:56.836Z,11
2018-06-23T04:34:58.884Z,8
2018-06-23T04:36:00.922Z,8
2018-06-23T04:37:03.299Z,11
2018-06-23T04:38:05.633Z,14
2018-06-23T04:39:08.093Z,16
2018-06-23T04:40:10.128Z,17
2018-06-23T04:41:12.189Z,18
2018-06-23T04:42:14.232Z,15
2018-06-23T04:43:16.601Z,13
2018-06-23T04:44:18.683Z,13
2018-06-23T04:45:21.114Z,11
2018-06-23T04:46:23.137Z,13
2018-06-23T04:47:25.181Z,19
2018-06-23T04:48:27.649Z,23
2018-06-23T04:49:29.740Z,25
2018-06-23T04:50:31.814Z,25
2018-06-23T04:51:33.926Z,25
2018-06-23T04:52:36.404Z,28
2018-06-23T04:53:38.465Z,33
2018-06-23T04:54:40.544Z,38
2018-06-23T04:55:42.617Z,39
2018-06-23T04:56:45.289Z,41
2018-06-23T04:57:47.366Z,40
2018-06-23T04:58:49.402Z,35
2018-06-23T04:59:52.933Z,34
2018-06-23T05:00:56.135Z,39
2018-06-23T05:01:59.359Z,42
2018-06-23T05:03:02.649Z,45
2018-06-23T05:04:05.706Z,49
2018-06-23T05:05:09.167Z,48
2018-06-23T05:06:12.655Z,48
2018-06-23T05:07:16.449Z,49
2018-06-23T05:08:20.220Z,53
2018-06-23T05:09:23.737Z,55
2018-06-23T05:10:25.765Z,56
2018-06-23T05:11:27.803Z,54
2018-06-23T05:12:29.851Z,58
2018-06-23T05:13:31.885Z,58
2018-06-23T05:14:34.208Z,52
2018-06-23T05:15:36.243Z,47
2018-06-23T05:16:38.288Z,42
2018-06-23T05:17:40.323Z,40
2018-06-23T05:18:42.349Z,40
2018-06-23T05:19:44.402Z,44
2018-06-23T05:20:46.444Z,41
2018-06-23T05:21:48.780Z,36
2018-06-23T05:22:50.815Z,38
2018-06-23T05:23:52.847Z,39
2018-06-23T05:24:54.880Z,40
2018-06-23T05:25:56.947Z,42
2018-06-23T05:26:58.942Z,44
2018-06-23T05:28:01.277Z,38
2018-06-23T05:29:03.303Z,35
2018-06-23T05:30:05.341Z,35
2018-06-23T05:31:07.393Z,35
2018-06-23T05:32:09.423Z,37
2018-06-23T05:33:11.458Z,36
2018-06-23T05:34:13.497Z,36
2018-06-23T05:35:15.532Z,37
2018-06-23T05:36:17.579Z,36
2018-06-23T05:37:19.606Z,37
2018-06-23T05:38:22.039Z,37
2018-06-23T05:39:24.074Z,37
2018-06-23T05:40:26.112Z,40
2018-06-23T05:41:28.148Z,41
2018-06-23T05:42:30.187Z,42
2018-06-23T05:43:32.617Z,41
2018-06-23T05:44:34.647Z,46
2018-06-23T05:45:36.675Z,48
2018-06-23T05:46:38.727Z,49
2018-06-23T05:47:40.747Z,46
2018-06-23T05:48:42.785Z,41
2018-06-23T05:49:44.821Z,38
2018-06-23T05:50:46.851Z,37
2018-06-23T05:51:48.889Z,36
2018-06-23T05:52:50.920Z,41
2018-06-23T05:53:53.243Z,49
2018-06-23T05:54:55.290Z,58
2018-06-23T05:55:57.315Z,62
2018-06-23T05:56:59.355Z,64
2018-06-23T05:58:01.393Z,65
2018-06-23T05:59:03.433Z,54
2018-06-23T06:00:05.478Z,52
2018-06-23T06:01:07.504Z,52
2018-06-23T06:02:09.552Z,50
2018-06-23T06:03:11.595Z,44
2018-06-23T06:04:13.627Z,43
2018-06-23T06:05:15.671Z,48
2018-06-23T06:06:17.997Z,54
2018-06-23T06:07:20.033Z,58
2018-06-23T06:08:22.069Z,57
2018-06-23T06:09:24.792Z,58
2018-06-23T06:10:26.833Z,61
2018-06-23T06:11:29.148Z,66
2018-06-23T06:12:31.185Z,67
2018-06-23T06:13:33.249Z,60
2018-06-23T06:14:35.264Z,49
2018-06-23T06:15:37.296Z,48
2018-06-23T06:16:39.342Z,46
2018-06-23T06:17:41.655Z,45
2018-06-23T06:18:44.080Z,45
2018-06-23T06:19:46.118Z,41
2018-06-23T06:20:48.534Z,40
2018-06-23T06:21:50.568Z,40
2018-06-23T06:22:52.888Z,40
2018-06-23T06:23:54.927Z,43
2018-06-23T06:24:56.970Z,45
2018-06-23T06:25:59.014Z,46
2018-06-23T06:27:01.055Z,49
2018-06-23T06:28:03.074Z,48
2018-06-23T06:29:05.112Z,45
2018-06-23T06:30:07.157Z,41
2018-06-23T06:31:09.483Z,39
2018-06-23T06:32:11.530Z,37
2018-06-23T06:33:13.870Z,40
2018-06-23T06:34:15.891Z,45
2018-06-23T06:35:17.927Z,50
2018-06-23T06:36:20.349Z,50
2018-06-23T06:37:22.785Z,48
2018-06-23T06:38:24.830Z,49
2018-06-23T06:39:26.863Z,48
2018-06-23T06:40:28.896Z,43
2018-06-23T06:41:30.935Z,40
2018-06-23T06:42:33.268Z,39
2018-06-23T06:43:35.301Z,34
2018-06-23T06:44:37.844Z,30
2018-06-23T06:45:40.494Z,32
2018-06-23T06:46:42.525Z,38
2018-06-23T06:47:44.564Z,42
2018-06-23T06:48:46.600Z,43
2018-06-23T06:49:48.936Z,42
2018-06-23T06:50:51.488Z,41
2018-06-23T06:51:53.760Z,41
2018-06-23T06:52:56.098Z,41
2018-06-23T06:53:58.138Z,38
2018-06-23T06:55:00.848Z,36
2018-06-23T06:56:03.166Z,35
2018-06-23T06:57:05.272Z,35
2018-06-23T06:58:07.249Z,39
2018-06-23T06:59:09.274Z,45
2018-06-23T07:00:11.312Z,45
2018-06-23T07:01:13.353Z,43
2018-06-23T07:02:15.397Z,42
2018-06-23T07:03:17.428Z,40
2018-06-23T07:04:19.464Z,36
2018-06-23T07:05:21.504Z,37
2018-06-23T07:06:23.823Z,42
2018-06-23T07:07:26.537Z,44
2018-06-23T07:08:28.566Z,51
2018-06-23T07:09:30.897Z,56
2018-06-23T07:10:32.948Z,53
2018-06-23T07:11:34.994Z,46
2018-06-23T07:12:37.039Z,45
2018-06-23T07:13:39.094Z,45
2018-06-23T07:14:41.135Z,47
2018-06-23T07:15:43.179Z,53
2018-06-23T07:16:45.216Z,57
2018-06-23T07:17:47.262Z,52
2018-06-23T07:18:49.297Z,46
2018-06-23T07:19:51.336Z,45
2018-06-23T07:20:53.372Z,47
2018-06-23T07:21:55.820Z,49
2018-06-23T07:22:57.861Z,51
2018-06-23T07:24:00.079Z,50
2018-06-23T07:25:01.950Z,48
2018-06-23T07:26:03.989Z,45
2018-06-23T07:27:06.042Z,44
2018-06-23T07:28:08.092Z,45
2018-06-23T07:29:10.526Z,44
2018-06-23T07:30:12.565Z,42
2018-06-23T07:31:15.173Z,37
2018-06-23T07:32:17.224Z,34
2018-06-23T07:33:19.267Z,33
2018-06-23T07:34:21.831Z,35
2018-06-23T07:35:23.791Z,42
2018-06-23T07:36:25.825Z,49
2018-06-23T07:37:28.249Z,57
2018-06-23T07:38:30.284Z,55
2018-06-23T07:39:33.012Z,53
2018-06-23T07:40:35.112Z,48
2018-06-23T07:41:37.100Z,47
2018-06-23T07:42:39.138Z,46
2018-06-23T07:43:41.169Z,49
2018-06-23T07:44:43.212Z,55
2018-06-23T07:45:45.251Z,60
2018-06-23T07:46:47.291Z,64
2018-06-23T07:47:49.329Z,60
2018-06-23T07:48:51.360Z,54
2018-06-23T07:49:53.408Z,53
2018-06-23T07:50:55.456Z,51
2018-06-23T07:51:57.513Z,51
2018-06-23T07:52:59.587Z,54
2018-06-23T07:54:01.633Z,60
2018-06-23T07:55:03.674Z,57
2018-06-23T07:56:05.739Z,55
2018-06-23T07:57:08.086Z,58
2018-06-23T07:58:10.189Z,60
2018-06-23T07:59:12.248Z,56
2018-06-23T08:00:14.286Z,51
2018-06-23T08:01:16.340Z,61
2018-06-23T08:02:18.693Z,64
2018-06-23T08:03:21.060Z,62
2018-06-23T08:04:23.105Z,65
2018-06-23T08:05:25.142Z,65
2018-06-23T08:06:27.577Z,67
2018-06-23T08:07:29.910Z,76
2018-06-23T08:08:31.962Z,83
2018-06-23T08:09:34.012Z,84
2018-06-23T08:10:36.074Z,79
2018-06-23T08:11:38.150Z,68
2018-06-23T08:12:40.194Z,59
2018-06-23T08:13:42.238Z,52
2018-06-23T08:14:44.319Z,49
2018-06-23T08:15:46.379Z,47
2018-06-23T08:16:48.440Z,42
2018-06-23T08:17:50.494Z,43
2018-06-23T08:18:52.563Z,40
2018-06-23T08:19:54.641Z,35
2018-06-23T08:20:56.970Z,35
2018-06-23T08:21:59.055Z,35
2018-06-23T08:23:01.106Z,38
2018-06-23T08:24:03.156Z,37
2018-06-23T08:25:05.724Z,34
2018-06-23T08:26:07.754Z,36
2018-06-23T08:27:09.807Z,41
2018-06-23T08:28:11.888Z,40
2018-06-23T08:29:14.255Z,33
2018-06-23T08:30:16.297Z,30
2018-06-23T08:31:18.353Z,29
2018-06-23T08:32:20.414Z,28
2018-06-23T08:33:22.448Z,30
2018-06-23T08:34:24.879Z,31
2018-06-23T08:35:26.958Z,32
2018-06-23T08:36:29.028Z,36
2018-06-23T08:37:31.385Z,39
2018-06-23T08:38:33.435Z,42
2018-06-23T08:39:35.530Z,47
2018-06-23T08:40:38.246Z,48
2018-06-23T08:41:40.292Z,57
2018-06-23T08:42:42.327Z,67
2018-06-23T08:43:44.872Z,89
2018-06-23T08:44:46.902Z,120
2018-06-23T08:45:48.931Z,140
2018-06-23T08:46:51.042Z,134
2018-06-23T08:47:53.467Z,133
2018-06-23T08:48:55.510Z,130
2018-06-23T08:49:57.553Z,123
2018-06-23T08:50:59.644Z,114
2018-06-23T08:52:01.712Z,113
2018-06-23T08:53:03.756Z,120
2018-06-23T08:54:05.847Z,127
2018-06-23T08:55:08.213Z,147
2018-06-23T08:56:10.312Z,143
2018-06-23T08:57:12.354Z,137
2018-06-23T08:58:14.440Z,141
2018-06-23T08:59:16.480Z,163
2018-06-23T09:00:18.523Z,120
2018-06-23T09:01:20.608Z,117
2018-06-23T09:02:23.075Z,119
2018-06-23T09:03:25.114Z,125
2018-06-23T09:04:27.167Z,122
2018-06-23T09:05:29.249Z,118
2018-06-23T09:06:31.916Z,105
2018-06-23T09:07:34.250Z,123
2018-06-23T09:08:36.295Z,96
2018-06-23T09:09:38.347Z,96
2018-06-23T09:10:40.389Z,99
2018-06-23T09:11:42.730Z,103
2018-06-23T09:12:44.777Z,109
2018-06-23T09:13:46.804Z,119
2018-06-23T09:14:48.960Z,113
2018-06-23T09:15:51.016Z,120
2018-06-23T09:16:53.074Z,130
2018-06-23T09:17:55.413Z,128
2018-06-23T09:18:57.595Z,171
2018-06-23T09:19:59.651Z,161
2018-06-23T09:21:01.989Z,146
2018-06-23T09:22:04.043Z,191
2018-06-23T09:23:06.638Z,142
2018-06-23T09:24:08.704Z,456
2018-06-23T09:25:11.043Z,160
2018-06-23T09:26:13.092Z,155
2018-06-23T09:27:15.139Z,142
2018-06-23T09:28:17.605Z,140
2018-06-23T09:29:19.642Z,153
2018-06-23T09:30:21.687Z,132
2018-06-23T09:31:23.732Z,118
2018-06-23T09:32:25.854Z,119
2018-06-23T09:33:27.898Z,92
2018-06-23T09:34:30.705Z,109
2018-06-23T09:35:33.715Z,135
2018-06-23T09:36:35.759Z,160
2018-06-23T09:37:37.863Z,125
2018-06-23T09:38:39.909Z,129
2018-06-23T09:39:41.961Z,140
2018-06-23T09:40:44.001Z,141
2018-06-23T09:41:46.138Z,137
2018-06-23T09:42:48.479Z,133
2018-06-23T09:43:50.524Z,127
2018-06-23T09:44:52.848Z,104
2018-06-23T09:45:56.217Z,86
2018-06-23T09:46:58.286Z,74
2018-06-23T09:48:00.325Z,69
2018-06-23T09:49:02.375Z,69
2018-06-23T09:50:04.706Z,74
2018-06-23T09:51:06.756Z,82
2018-06-23T09:52:09.238Z,85
2018-06-23T09:53:11.272Z,90
2018-06-23T09:54:13.328Z,91
2018-06-23T09:55:15.369Z,91
2018-06-23T09:56:17.503Z,92
2018-06-23T09:57:19.843Z,94
2018-06-23T09:58:21.889Z,96
2018-06-23T09:59:23.921Z,92
2018-06-23T10:00:26.086Z,85
2018-06-23T10:01:28.115Z,91
2018-06-23T10:02:30.216Z,98
2018-06-23T10:03:32.250Z,108
2018-06-23T10:04:34.711Z,118
2018-06-23T10:05:36.778Z,114
2018-06-23T10:06:38.828Z,79
2018-06-23T10:07:40.880Z,69
2018-06-23T10:08:43.016Z,73
2018-06-23T10:09:45.132Z,83
2018-06-23T10:10:47.200Z,83
2018-06-23T10:11:49.243Z,77
2018-06-23T10:12:51.571Z,66
2018-06-23T10:13:53.700Z,50
2018-06-23T10:14:55.747Z,40
2018-06-23T10:15:57.795Z,33
2018-06-23T10:17:00.143Z,28
2018-06-23T10:18:02.200Z,29
2018-06-23T10:19:04.550Z,37
2018-06-23T10:20:06.590Z,51
2018-06-23T10:21:08.631Z,62
2018-06-23T10:22:11.264Z,70
2018-06-23T10:23:13.674Z,81
2018-06-23T10:24:15.717Z,89
2018-06-23T10:25:17.761Z,98
2018-06-23T10:26:19.803Z,97
2018-06-23T10:27:22.262Z,89
2018-06-23T10:28:24.268Z,81
2018-06-23T10:29:26.601Z,77
2018-06-23T10:30:28.640Z,71
2018-06-23T10:31:31.075Z,64
2018-06-23T10:32:33.229Z,59
2018-06-23T10:33:35.274Z,54
2018-06-23T10:34:37.333Z,46
2018-06-23T10:35:39.380Z,48
2018-06-23T10:36:42.174Z,50
2018-06-23T10:37:44.223Z,52
2018-06-23T10:38:46.282Z,55
2018-06-23T10:39:48.293Z,62
2018-06-23T10:40:50.336Z,68
2018-06-23T10:41:52.389Z,75
2018-06-23T10:42:54.430Z,79
2018-06-23T10:43:56.754Z,91
2018-06-23T10:44:58.808Z,104
2018-06-23T10:46:00.847Z,128
2018-06-23T10:47:02.891Z,132
2018-06-23T10:48:04.931Z,105
2018-06-23T10:49:06.970Z,94
2018-06-23T10:50:09.014Z,88
2018-06-23T10:51:11.350Z,86
2018-06-23T10:52:13.684Z,87
2018-06-23T10:53:15.732Z,86
2018-06-23T10:54:17.774Z,72
2018-06-23T10:55:19.825Z,60
2018-06-23T10:56:22.151Z,41
2018-06-23T10:57:24.201Z,24
2018-06-23T10:58:26.236Z,19
2018-06-23T10:59:28.292Z,19
2018-06-23T11:00:30.999Z,21
2018-06-23T11:01:33.050Z,23
2018-06-23T11:02:35.102Z,25
2018-06-23T11:03:37.151Z,26
2018-06-23T11:04:39.281Z,30
2018-06-23T11:05:41.241Z,36
2018-06-23T11:06:43.277Z,43
2018-06-23T11:07:45.342Z,53
2018-06-23T11:08:47.381Z,69
2018-06-23T11:09:49.732Z,90
2018-06-23T11:10:51.780Z,112
2018-06-23T11:11:53.831Z,107
2018-06-23T11:12:55.880Z,106
2018-06-23T11:13:57.923Z,93
2018-06-23T11:14:59.962Z,85
2018-06-23T11:16:02.304Z,82
2018-06-23T11:17:04.341Z,81
2018-06-23T11:18:06.400Z,83
2018-06-23T11:19:08.827Z,85
2018-06-23T11:20:11.167Z,88
2018-06-23T11:21:13.211Z,90
2018-06-23T11:22:15.258Z,92
2018-06-23T11:23:17.301Z,94
2018-06-23T11:24:19.392Z,98
2018-06-23T11:25:21.382Z,102
2018-06-23T11:26:23.432Z,107
2018-06-23T11:27:25.476Z,109
2018-06-23T11:28:27.910Z,115
2018-06-23T11:29:29.956Z,122
2018-06-23T11:30:31.996Z,129
2018-06-23T11:31:34.046Z,135
2018-06-23T11:32:36.081Z,134
2018-06-23T11:33:38.124Z,149
2018-06-23T11:34:40.467Z,156
2018-06-23T11:35:42.505Z,172
2018-06-23T11:36:44.550Z,188
2018-06-23T11:37:46.596Z,162
2018-06-23T11:38:48.953Z,148
2018-06-23T11:39:50.996Z,136
2018-06-23T11:40:53.021Z,127
2018-06-23T11:41:55.076Z,123
2018-06-23T11:42:57.131Z,115
2018-06-23T11:43:59.179Z,109
2018-06-23T11:45:01.526Z,101
2018-06-23T11:46:03.609Z,96
2018-06-23T11:47:05.650Z,89
2018-06-23T11:48:07.702Z,82
2018-06-23T11:49:09.753Z,76
2018-06-23T11:50:12.108Z,77
2018-06-23T11:51:14.151Z,85
2018-06-23T11:52:16.752Z,95
2018-06-23T11:53:18.720Z,101
2018-06-23T11:54:21.158Z,106
2018-06-23T11:55:23.201Z,124
2018-06-23T11:56:25.242Z,146
2018-06-23T11:57:27.297Z,167
2018-06-23T11:58:29.338Z,177
2018-06-23T11:59:31.382Z,149
2018-06-23T12:00:33.421Z,108
2018-06-23T12:01:35.466Z,99
2018-06-23T12:02:37.514Z,106
2018-06-23T12:03:39.948Z,103
2018-06-23T12:04:41.991Z,96
2018-06-23T12:05:44.032Z,92
2018-06-23T12:06:46.077Z,91
2018-06-23T12:07:48.122Z,94
2018-06-23T12:08:50.162Z,92
2018-06-23T12:09:52.204Z,90
2018-06-23T12:10:54.246Z,102
2018-06-23T12:11:56.293Z,122
2018-06-23T12:12:58.335Z,134
2018-06-23T12:14:00.656Z,153
2018-06-23T12:15:02.705Z,162
2018-06-23T12:16:05.035Z,162
2018-06-23T12:17:07.077Z,154
2018-06-23T12:18:09.117Z,140
2018-06-23T12:19:11.162Z,137
2018-06-23T12:20:13.827Z,131
2018-06-23T12:21:16.003Z,129
2018-06-23T12:22:18.048Z,136
2018-06-23T12:23:20.394Z,145
2018-06-23T12:24:22.434Z,134
2018-06-23T12:25:24.505Z,129
2018-06-23T12:26:26.529Z,125
2018-06-23T12:27:28.574Z,130
2018-06-23T12:28:30.627Z,151
2018-06-23T12:29:32.965Z,153
2018-06-23T12:30:35.015Z,138
2018-06-23T12:31:37.055Z,112
2018-06-23T12:32:39.361Z,93
2018-06-23T12:33:41.416Z,78
2018-06-23T12:34:43.750Z,65
2018-06-23T12:35:45.795Z,55
2018-06-23T12:36:47.844Z,49
2018-06-23T12:37:50.180Z,44
2018-06-23T12:38:52.270Z,39
2018-06-23T12:39:54.593Z,38
2018-06-23T12:40:56.923Z,45
2018-06-23T12:41:58.976Z,51
2018-06-23T12:43:01.017Z,58
2018-06-23T12:44:03.067Z,64
2018-06-23T12:45:05.100Z,69
2018-06-23T12:46:07.146Z,76
2018-06-23T12:47:09.184Z,83
2018-06-23T12:48:11.616Z,93
2018-06-23T12:49:13.653Z,106
2018-06-23T12:50:16.545Z,117
2018-06-23T12:51:18.592Z,123
2018-06-23T12:52:20.633Z,118
2018-06-23T12:53:22.674Z,108
2018-06-23T12:54:25.014Z,104
2018-06-23T12:55:27.359Z,103
2018-06-23T12:56:29.685Z,102
2018-06-23T12:57:32.014Z,94
2018-06-23T12:58:34.346Z,85
2018-06-23T12:59:36.385Z,82
2018-06-23T13:00:38.430Z,81
2018-06-23T13:01:40.755Z,68
2018-06-23T13:02:42.806Z,57
2018-06-23T13:03:44.848Z,49
2018-06-23T13:04:47.213Z,47
2018-06-23T13:05:49.246Z,53
2018-06-23T13:06:51.966Z,67
2018-06-23T13:07:54.004Z,91
2018-06-23T13:08:56.330Z,111
2018-06-23T13:09:58.766Z,151
2018-06-23T13:11:00.803Z,181
2018-06-23T13:12:03.419Z,224
2018-06-23T13:13:05.474Z,221
2018-06-23T13:14:07.515Z,275
2018-06-23T13:15:09.578Z,544
2018-06-23T13:16:11.597Z,511
2018-06-23T13:17:13.648Z,212
2018-06-23T13:18:15.997Z,154
2018-06-23T13:19:18.043Z,155
2018-06-23T13:20:20.079Z,159
2018-06-23T13:21:22.429Z,174
2018-06-23T13:22:24.580Z,189
2018-06-23T13:23:26.519Z,187
2018-06-23T13:24:28.561Z,183
2018-06-23T13:25:30.601Z,177
2018-06-23T13:26:32.646Z,178
2018-06-23T13:27:35.067Z,173
2018-06-23T13:28:37.809Z,135
2018-06-23T13:29:39.851Z,107
2018-06-23T13:30:42.180Z,102
2018-06-23T13:31:44.818Z,93
2018-06-23T13:32:46.858Z,87
2018-06-23T13:33:49.189Z,88
2018-06-23T13:34:51.228Z,92
2018-06-23T13:35:53.272Z,95
2018-06-23T13:36:55.319Z,107
2018-06-23T13:37:57.360Z,110
2018-06-23T13:38:59.791Z,104
2018-06-23T13:40:01.837Z,99
2018-06-23T13:41:03.883Z,98
2018-06-23T13:42:06.225Z,101
2018-06-23T13:43:08.273Z,102
2018-06-23T13:44:10.316Z,97
2018-06-23T13:45:12.362Z,96
2018-06-23T13:46:14.396Z,87
2018-06-23T13:47:16.438Z,67
2018-06-23T13:48:18.485Z,54
2018-06-23T13:49:20.517Z,56
2018-06-23T13:50:22.560Z,64
2018-06-23T13:51:24.596Z,63
2018-06-23T13:52:26.694Z,65
2018-06-23T13:53:28.730Z,80
2018-06-23T13:54:30.773Z,96
2018-06-23T13:55:32.831Z,105
2018-06-23T13:56:34.882Z,106
2018-06-23T13:57:36.931Z,100
2018-06-23T13:58:39.262Z,87
2018-06-23T13:59:41.298Z,75
2018-06-23T14:00:43.351Z,73
2018-06-23T14:01:45.393Z,79
2018-06-23T14:02:47.424Z,83
2018-06-23T14:03:49.467Z,86
2018-06-23T14:04:51.510Z,87
2018-06-23T14:05:53.552Z,86
2018-06-23T14:06:55.591Z,88
2018-06-23T14:07:57.632Z,94
2018-06-23T14:08:59.683Z,107
2018-06-23T14:10:01.721Z,104
2018-06-23T14:11:04.041Z,96
2018-06-23T14:12:06.089Z,94
2018-06-23T14:13:08.421Z,92
2018-06-23T14:14:10.460Z,90
2018-06-23T14:15:12.505Z,90
2018-06-23T14:16:14.547Z,92
2018-06-23T14:17:16.591Z,90
2018-06-23T14:18:19.020Z,89
2018-06-23T14:19:21.066Z,86
2018-06-23T14:20:23.108Z,84
2018-06-23T14:21:25.149Z,87
2018-06-23T14:22:27.492Z,90
2018-06-23T14:23:29.538Z,94
2018-06-23T14:24:31.586Z,91
2018-06-23T14:25:33.629Z,84
2018-06-23T14:26:36.247Z,75
2018-06-23T14:27:38.308Z,69
2018-06-23T14:28:40.617Z,67
2018-06-23T14:29:42.654Z,64
2018-06-23T14:30:44.699Z,62
2018-06-23T14:31:47.454Z,55
2018-06-23T14:32:49.400Z,45
2018-06-23T14:33:51.441Z,39
2018-06-23T14:34:53.486Z,32
2018-06-23T14:35:55.835Z,26
2018-06-23T14:36:57.870Z,22
2018-06-23T14:38:00.296Z,24
2018-06-23T14:39:02.336Z,30
2018-06-23T14:40:04.896Z,28
2018-06-23T14:41:06.928Z,34
2018-06-23T14:42:08.976Z,53
2018-06-23T14:43:11.003Z,56
2018-06-23T14:44:13.039Z,55
2018-06-23T14:45:15.084Z,58
2018-06-23T14:46:17.129Z,59
2018-06-23T14:47:19.466Z,57
2018-06-23T14:48:21.508Z,58
2018-06-23T14:49:23.552Z,60
2018-06-23T14:50:25.600Z,62
2018-06-23T14:51:27.626Z,61